ELY289 LLBG-LIPZ
Flight info
| Callsign | ELY289 |
|---|---|
| Flight time | N/A |
| Altitude | 36000 |
| Route | SUVAS L53 ANIDE DCT RIPLI/N0452F380 DCT TALAS DCT ENFAR DCT POD DCT INTIT DCT VELIT DCT IPKIS DCT LABIN Z122 BASOG |
| Aircraft | B738/M-SDE2E3FGHIRWXY/LB1 |
Departure
| Time | N/A |
|---|---|
| Airport | Ben Gurion International Airport (LLBG) |
Arrival
| Time | 2026-04-30 18:02 |
|---|---|
| Airport | Venice Marco Polo Airport (LIPZ) |
| Time | Latitude | Longitude | Altitude | Speed | Heading |
|---|---|---|---|---|---|
| 2026-04-30 17:39 | 44.82407 | 13.41301 | 25273 ft | 366 kts | 309° |
| 2026-04-30 17:41 | 44.94288 | 13.17710 | 21450 ft | 357 kts | 309° |
| 2026-04-30 17:42 | 44.97130 | 13.12041 | 20530 ft | 351 kts | 309° |
| 2026-04-30 17:42 | 45.00235 | 13.02797 | 19232 ft | 349 kts | 293° |
| 2026-04-30 17:43 | 45.01808 | 12.96299 | 18325 ft | 346 kts | 293° |
| 2026-04-30 17:44 | 45.04136 | 12.86774 | 16955 ft | 339 kts | 293° |
| 2026-04-30 17:44 | 45.06439 | 12.77404 | 15664 ft | 333 kts | 293° |
| 2026-04-30 17:46 | 45.10184 | 12.62107 | 13523 ft | 325 kts | 292° |
| 2026-04-30 17:47 | 45.13063 | 12.50268 | 12287 ft | 304 kts | 293° |
| 2026-04-30 17:48 | 45.16011 | 12.38922 | 11248 ft | 315 kts | 294° |
| 2026-04-30 17:48 | 45.18223 | 12.30429 | 10399 ft | 291 kts | 293° |
| 2026-04-30 17:49 | 45.19046 | 12.19649 | 9386 ft | 282 kts | 268° |
| 2026-04-30 17:50 | 45.17536 | 12.08952 | 8354 ft | 282 kts | 228° |
| 2026-04-30 17:51 | 45.13988 | 12.02758 | 7593 ft | 269 kts | 267° |
| 2026-04-30 17:52 | 45.16258 | 11.96250 | 6902 ft | 245 kts | 330° |
| 2026-04-30 17:53 | 45.22824 | 11.99544 | 5657 ft | 217 kts | 40° |
| 2026-04-30 17:54 | 45.27005 | 12.04786 | 4926 ft | 184 kts | 45° |
| 2026-04-30 17:55 | 45.30659 | 12.09520 | 4279 ft | 178 kts | 45° |
| 2026-04-30 17:56 | 45.34366 | 12.14321 | 3621 ft | 184 kts | 45° |
| 2026-04-30 17:57 | 45.37167 | 12.17943 | 3225 ft | 176 kts | 46° |
| 2026-04-30 17:58 | 45.39840 | 12.21400 | 2544 ft | 161 kts | 46° |
| 2026-04-30 17:59 | 45.42896 | 12.25353 | 1753 ft | 140 kts | 45° |
| 2026-04-30 18:00 | 45.45790 | 12.29093 | 977 ft | 140 kts | 45° |
| 2026-04-30 18:00 | 45.48019 | 12.31958 | 406 ft | 146 kts | 46° |
| 2026-04-30 18:01 | 45.49499 | 12.33880 | 47 ft | 139 kts | 44° |
| 2026-04-30 18:02 | 45.50638 | 12.35332 | 14 ft | 11 kts | 31° |
| 2026-04-30 18:02 | 45.50837 | 12.35438 | 15 ft | 10 kts | 13° |
| 2026-04-30 18:03 | 45.50980 | 12.35358 | 17 ft | 9 kts | 262° |
| 2026-04-30 18:04 | 45.50886 | 12.35113 | 15 ft | 10 kts | 221° |
| 2026-04-30 18:05 | 45.50695 | 12.34869 | 15 ft | 9 kts | 223° |
| 2026-04-30 18:06 | 45.50603 | 12.34592 | 15 ft | 8 kts | 267° |
| 2026-04-30 18:07 | 45.50533 | 12.34344 | 15 ft | 7 kts | 212° |
| 2026-04-30 18:08 | 45.50394 | 12.34351 | 15 ft | 7 kts | 178° |
| 2026-04-30 18:09 | 45.50238 | 12.34277 | 15 ft | 6 kts | 236° |
| 2026-04-30 18:10 | 45.50287 | 12.34164 | 15 ft | 0 kts | 313° |